createdAt,value
2023-04-11T00:00:06.026Z,43.03
2023-04-11T00:01:06.069Z,43.17
2023-04-11T00:02:06.207Z,43.12
2023-04-11T00:03:06.290Z,43.14
2023-04-11T00:04:06.417Z,43.14
2023-04-11T00:05:06.328Z,43.41
2023-04-11T00:06:06.357Z,43.54
2023-04-11T00:07:06.413Z,43.90
2023-04-11T00:08:06.499Z,43.77
2023-04-11T00:09:06.526Z,43.52
2023-04-11T00:10:06.601Z,43.34
2023-04-11T00:11:06.658Z,43.22
2023-04-11T00:12:06.718Z,43.04
2023-04-11T00:13:06.770Z,42.62
2023-04-11T00:14:06.815Z,41.68
2023-04-11T00:15:06.897Z,41.29
2023-04-11T00:16:07.016Z,41.46
2023-04-11T00:17:07.013Z,41.40
2023-04-11T00:18:07.130Z,41.29
2023-04-11T00:19:07.102Z,41.24
2023-04-11T00:20:07.110Z,41.19
2023-04-11T00:21:07.184Z,41.30
2023-04-11T00:22:07.140Z,40.82
2023-04-11T00:23:07.258Z,40.65
2023-04-11T00:24:07.321Z,40.73
2023-04-11T00:25:07.409Z,40.90
2023-04-11T00:26:07.425Z,40.95
2023-04-11T00:27:07.482Z,41.16
2023-04-11T00:28:07.558Z,41.31
2023-04-11T00:29:07.611Z,41.49
2023-04-11T00:30:07.655Z,41.49
2023-04-11T00:31:07.674Z,41.55
2023-04-11T00:32:07.734Z,41.73
2023-04-11T00:33:07.830Z,41.87
2023-04-11T00:34:07.752Z,42.02
2023-04-11T00:35:07.739Z,42.07
2023-04-11T00:36:07.921Z,42.12
2023-04-11T00:37:07.818Z,41.69
2023-04-11T00:38:07.819Z,41.71
2023-04-11T00:39:07.843Z,41.71
2023-04-11T00:40:07.846Z,41.70
2023-04-11T00:41:07.887Z,41.57
2023-04-11T00:42:07.972Z,41.34
2023-04-11T00:43:07.875Z,41.32
2023-04-11T00:44:07.879Z,41.39
2023-04-11T00:45:07.879Z,41.30
2023-04-11T00:46:07.910Z,41.15
2023-04-11T00:47:07.887Z,41.02
2023-04-11T00:48:08.058Z,40.86
2023-04-11T00:49:07.918Z,40.90
2023-04-11T00:50:07.899Z,40.71
2023-04-11T00:51:07.898Z,40.45
2023-04-11T00:52:07.906Z,40.78
2023-04-11T00:53:07.959Z,41.12
2023-04-11T00:54:07.928Z,40.94
2023-04-11T00:55:07.950Z,40.83
2023-04-11T00:56:07.954Z,40.77
2023-04-11T00:57:08.035Z,40.25
2023-04-11T00:58:08.089Z,39.93
2023-04-11T00:59:08.152Z,39.61
2023-04-11T01:00:08.197Z,39.50
2023-04-11T01:01:08.270Z,39.62
2023-04-11T01:02:08.392Z,39.65
2023-04-11T01:03:08.436Z,39.25
2023-04-11T01:04:08.523Z,39.45
2023-04-11T01:05:08.388Z,39.62
2023-04-11T01:06:08.443Z,39.14
2023-04-11T01:07:08.520Z,38.96
2023-04-11T01:08:08.556Z,39.04
2023-04-11T01:09:08.619Z,39.25
2023-04-11T01:10:08.698Z,39.45
2023-04-11T01:11:08.734Z,40.55
2023-04-11T01:12:08.783Z,41.49
2023-04-11T01:13:08.825Z,42.13
2023-04-11T01:14:08.869Z,42.44
2023-04-11T01:15:08.907Z,42.69
2023-04-11T01:16:08.984Z,42.92
2023-04-11T01:17:09.021Z,43.11
2023-04-11T01:18:09.225Z,43.13
2023-04-11T01:19:09.118Z,43.05
2023-04-11T01:20:09.266Z,42.72
2023-04-11T01:21:09.253Z,42.99
2023-04-11T01:22:09.292Z,42.98
2023-04-11T01:23:09.338Z,43.26
2023-04-11T01:24:09.397Z,43.12
2023-04-11T01:25:09.507Z,42.70
2023-04-11T01:26:09.545Z,42.40
2023-04-11T01:27:09.586Z,42.25
2023-04-11T01:28:09.644Z,42.72
2023-04-11T01:29:09.687Z,42.88
2023-04-11T01:30:09.760Z,42.74
2023-04-11T01:31:09.918Z,42.85
2023-04-11T01:32:09.882Z,42.78
2023-04-11T01:33:09.941Z,42.63
2023-04-11T01:34:10.004Z,42.35
2023-04-11T01:35:10.083Z,42.69
2023-04-11T01:36:10.174Z,43.29
2023-04-11T01:37:10.200Z,43.80
2023-04-11T01:38:10.252Z,44.19
2023-04-11T01:39:10.339Z,44.43
2023-04-11T01:40:10.334Z,44.62
2023-04-11T01:41:10.337Z,44.70
2023-04-11T01:42:10.324Z,45.08
2023-04-11T01:43:10.345Z,45.21
2023-04-11T01:44:10.346Z,45.30
2023-04-11T01:45:10.329Z,45.42
2023-04-11T01:46:10.341Z,45.30
2023-04-11T01:47:10.410Z,45.33
2023-04-11T01:48:10.403Z,45.31
2023-04-11T01:49:10.417Z,45.44
2023-04-11T01:50:10.365Z,45.29
2023-04-11T01:51:10.365Z,45.42
2023-04-11T01:52:10.403Z,45.29
2023-04-11T01:53:10.418Z,44.55
2023-04-11T01:54:10.429Z,44.45
2023-04-11T01:55:10.447Z,44.65
2023-04-11T01:56:10.451Z,44.42
2023-04-11T01:57:10.489Z,43.72
2023-04-11T01:58:10.531Z,43.44
2023-04-11T01:59:10.631Z,43.56
2023-04-11T02:00:10.702Z,43.82
2023-04-11T02:01:10.818Z,44.11
2023-04-11T02:02:10.946Z,44.01
2023-04-11T02:03:10.868Z,43.41
2023-04-11T02:04:10.820Z,43.12
2023-04-11T02:05:10.776Z,43.29
2023-04-11T02:06:10.818Z,43.28
2023-04-11T02:07:10.806Z,43.30
2023-04-11T02:08:10.815Z,43.50
2023-04-11T02:09:10.821Z,43.61
2023-04-11T02:10:10.823Z,43.57
2023-04-11T02:11:10.832Z,43.62
2023-04-11T02:12:10.860Z,43.62
2023-04-11T02:13:10.867Z,43.73
2023-04-11T02:14:10.856Z,43.73
2023-04-11T02:15:10.873Z,43.87
2023-04-11T02:16:10.975Z,43.88
2023-04-11T02:17:10.879Z,43.88
2023-04-11T02:18:10.901Z,43.96
2023-04-11T02:19:10.913Z,44.11
2023-04-11T02:20:10.924Z,44.18
2023-04-11T02:21:10.938Z,44.16
2023-04-11T02:22:10.943Z,43.95
2023-04-11T02:23:10.963Z,44.00
2023-04-11T02:24:10.959Z,44.08
2023-04-11T02:25:10.951Z,44.21
2023-04-11T02:26:10.970Z,44.30
2023-04-11T02:27:10.966Z,44.40
2023-04-11T02:28:11.015Z,44.43
2023-04-11T02:29:11.026Z,44.58
2023-04-11T02:30:11.001Z,44.55
2023-04-11T02:31:11.211Z,44.26
2023-04-11T02:32:11.232Z,44.09
2023-04-11T02:33:11.112Z,44.11
2023-04-11T02:34:11.135Z,44.21
2023-04-11T02:35:11.148Z,44.27
2023-04-11T02:36:11.263Z,44.10
2023-04-11T02:37:11.312Z,44.04
2023-04-11T02:38:11.424Z,43.86
2023-04-11T02:39:11.412Z,43.82
2023-04-11T02:40:11.475Z,43.55
2023-04-11T02:41:11.522Z,43.50
2023-04-11T02:42:11.558Z,43.37
2023-04-11T02:43:11.633Z,43.14
2023-04-11T02:44:11.704Z,43.18
2023-04-11T02:45:11.815Z,42.95
2023-04-11T02:46:13.325Z,43.02
2023-04-11T02:47:11.939Z,43.08
2023-04-11T02:48:11.958Z,43.07
2023-04-11T02:49:12.013Z,42.78
2023-04-11T02:50:12.066Z,42.47
2023-04-11T02:51:12.110Z,42.25
2023-04-11T02:52:12.195Z,41.87
2023-04-11T02:53:12.256Z,41.88
2023-04-11T02:54:12.302Z,41.92
2023-04-11T02:55:12.369Z,42.23
2023-04-11T02:56:12.417Z,42.65
2023-04-11T02:57:12.470Z,43.21
2023-04-11T02:58:12.543Z,43.81
2023-04-11T02:59:12.577Z,44.29
2023-04-11T03:00:12.667Z,44.71
2023-04-11T03:01:12.815Z,44.88
2023-04-11T03:02:12.860Z,45.03
2023-04-11T03:03:13.043Z,45.16
2023-04-11T03:04:12.968Z,45.43
2023-04-11T03:05:12.966Z,45.44
2023-04-11T03:06:12.982Z,45.29
2023-04-11T03:07:13.011Z,45.50
2023-04-11T03:08:13.056Z,44.91
2023-04-11T03:09:13.040Z,44.91
2023-04-11T03:10:13.076Z,45.19
2023-04-11T03:11:13.036Z,45.38
2023-04-11T03:12:13.050Z,45.55
2023-04-11T03:13:13.046Z,45.54
2023-04-11T03:14:13.042Z,45.74
2023-04-11T03:15:13.061Z,45.88
2023-04-11T03:16:13.090Z,45.87
2023-04-11T03:17:13.115Z,45.71
2023-04-11T03:18:13.156Z,45.47
2023-04-11T03:19:13.159Z,45.42
2023-04-11T03:20:13.192Z,45.52
2023-04-11T03:21:13.214Z,45.60
2023-04-11T03:22:13.216Z,45.62
2023-04-11T03:23:13.242Z,45.88
2023-04-11T03:24:13.258Z,45.74
2023-04-11T03:25:13.257Z,45.61
2023-04-11T03:26:13.294Z,45.46
2023-04-11T03:27:13.278Z,45.13
2023-04-11T03:28:13.303Z,45.12
2023-04-11T03:29:13.309Z,45.36
2023-04-11T03:30:13.290Z,45.81
2023-04-11T03:31:13.380Z,45.59
2023-04-11T03:32:13.309Z,45.29
2023-04-11T03:33:13.352Z,44.85
2023-04-11T03:34:13.313Z,44.53
2023-04-11T03:35:13.314Z,44.54
2023-04-11T03:36:13.347Z,44.92
2023-04-11T03:37:13.300Z,44.52
2023-04-11T03:38:13.371Z,44.48
2023-04-11T03:39:13.337Z,44.87
2023-04-11T03:40:13.340Z,45.08
2023-04-11T03:41:13.384Z,44.89
2023-04-11T03:42:13.378Z,44.71
2023-04-11T03:43:13.410Z,43.88
2023-04-11T03:44:13.399Z,43.77
2023-04-11T03:45:13.399Z,44.02
2023-04-11T03:46:13.421Z,44.02
2023-04-11T03:47:13.399Z,43.76
2023-04-11T03:48:13.433Z,43.81
2023-04-11T03:49:13.423Z,43.81
2023-04-11T03:50:13.478Z,44.14
2023-04-11T03:51:13.535Z,44.46
2023-04-11T03:52:13.589Z,45.14
2023-04-11T03:53:13.673Z,45.50
2023-04-11T03:54:13.685Z,45.63
2023-04-11T03:55:13.752Z,45.82
2023-04-11T03:56:13.817Z,45.82
2023-04-11T03:57:13.875Z,45.62
2023-04-11T03:58:13.951Z,44.91
2023-04-11T03:59:14.002Z,44.91
2023-04-11T04:00:14.090Z,44.62
2023-04-11T04:01:14.140Z,44.35
2023-04-11T04:02:15.112Z,44.30
2023-04-11T04:03:14.362Z,44.26
2023-04-11T04:04:14.343Z,43.82
2023-04-11T04:05:14.347Z,43.72
2023-04-11T04:06:14.297Z,43.59
2023-04-11T04:07:14.315Z,43.53
2023-04-11T04:08:14.375Z,43.56
2023-04-11T04:09:14.380Z,43.48
2023-04-11T04:10:14.446Z,43.28
2023-04-11T04:11:14.451Z,42.99
2023-04-11T04:12:14.476Z,42.84
2023-04-11T04:13:14.503Z,42.91
2023-04-11T04:14:14.524Z,42.44
2023-04-11T04:15:14.514Z,42.50
2023-04-11T04:16:14.594Z,42.35
2023-04-11T04:17:14.584Z,42.60
2023-04-11T04:18:14.617Z,42.92
2023-04-11T04:19:14.653Z,43.44
2023-04-11T04:20:14.711Z,43.98
2023-04-11T04:21:14.710Z,44.62
2023-04-11T04:22:14.708Z,45.28
2023-04-11T04:23:14.706Z,45.80
2023-04-11T04:24:14.754Z,45.61
2023-04-11T04:25:14.746Z,45.81
2023-04-11T04:26:14.767Z,46.24
2023-04-11T04:27:14.755Z,46.60
2023-04-11T04:28:14.816Z,46.91
2023-04-11T04:29:14.797Z,47.07
2023-04-11T04:30:14.785Z,46.91
2023-04-11T04:31:14.818Z,46.50
2023-04-11T04:32:14.806Z,46.53
2023-04-11T04:33:14.835Z,46.74
2023-04-11T04:34:14.802Z,47.20
2023-04-11T04:35:14.829Z,47.42
2023-04-11T04:36:14.825Z,47.44
2023-04-11T04:37:14.843Z,47.06
2023-04-11T04:38:14.859Z,46.72
2023-04-11T04:39:14.872Z,46.82
2023-04-11T04:40:14.865Z,46.92
2023-04-11T04:41:14.943Z,46.88
2023-04-11T04:42:14.919Z,46.56
2023-04-11T04:43:14.897Z,46.42
2023-04-11T04:44:14.876Z,46.46
2023-04-11T04:45:14.906Z,46.60
2023-04-11T04:46:15.004Z,46.61
2023-04-11T04:47:14.918Z,46.77
2023-04-11T04:48:14.956Z,46.46
2023-04-11T04:49:14.928Z,46.00
2023-04-11T04:50:14.922Z,45.59
2023-04-11T04:51:14.916Z,45.28
2023-04-11T04:52:14.951Z,45.10
2023-04-11T04:53:14.952Z,45.44
2023-04-11T04:54:14.926Z,45.74
2023-04-11T04:55:14.953Z,45.76
2023-04-11T04:56:14.932Z,45.73
2023-04-11T04:57:14.937Z,45.91
2023-04-11T04:58:14.977Z,46.14
2023-04-11T04:59:14.965Z,46.44
2023-04-11T05:00:14.981Z,46.02
2023-04-11T05:01:14.991Z,45.63
2023-04-11T05:02:15.105Z,44.84
2023-04-11T05:03:15.101Z,44.23
2023-04-11T05:04:15.103Z,43.95
2023-04-11T05:05:14.983Z,43.55
2023-04-11T05:06:15.013Z,43.60
2023-04-11T05:07:15.010Z,43.83
2023-04-11T05:08:15.070Z,43.54
2023-04-11T05:09:15.069Z,43.21
2023-04-11T05:10:15.134Z,43.29
2023-04-11T05:11:15.187Z,43.53
2023-04-11T05:12:15.268Z,43.51
2023-04-11T05:13:15.329Z,43.42
2023-04-11T05:14:15.386Z,43.03
2023-04-11T05:15:15.424Z,43.49
2023-04-11T05:16:15.500Z,43.41
2023-04-11T05:17:15.513Z,43.35
2023-04-11T05:18:15.607Z,43.46
2023-04-11T05:19:15.631Z,43.51
2023-04-11T05:20:15.674Z,43.82
2023-04-11T05:21:15.742Z,44.15
2023-04-11T05:22:15.802Z,45.06
2023-04-11T05:23:15.882Z,45.12
2023-04-11T05:24:15.937Z,45.02
2023-04-11T05:25:15.993Z,45.36
2023-04-11T05:26:16.008Z,45.02
2023-04-11T05:27:16.036Z,44.64
2023-04-11T05:28:16.113Z,44.92
2023-04-11T05:29:16.165Z,45.05
2023-04-11T05:30:16.205Z,44.49
2023-04-11T05:31:16.293Z,44.69
2023-04-11T05:32:16.345Z,45.07
2023-04-11T05:33:16.395Z,45.22
2023-04-11T05:34:16.401Z,45.44
2023-04-11T05:35:16.407Z,45.80
2023-04-11T05:36:16.477Z,45.90
2023-04-11T05:37:16.399Z,46.14
2023-04-11T05:38:16.503Z,46.46
2023-04-11T05:39:16.446Z,46.68
2023-04-11T05:40:16.501Z,46.81
2023-04-11T05:41:16.519Z,46.87
2023-04-11T05:42:16.568Z,47.00
2023-04-11T05:43:16.603Z,46.99
2023-04-11T05:44:16.630Z,46.98
2023-04-11T05:45:16.643Z,46.93
2023-04-11T05:46:16.740Z,46.91
2023-04-11T05:47:16.700Z,46.95
2023-04-11T05:48:16.733Z,47.20
2023-04-11T05:49:16.828Z,47.29
2023-04-11T05:50:16.846Z,47.45
2023-04-11T05:51:16.781Z,47.60
2023-04-11T05:52:16.839Z,47.73
2023-04-11T05:53:16.860Z,47.61
2023-04-11T05:54:16.878Z,47.35
2023-04-11T05:55:16.865Z,47.20
2023-04-11T05:56:16.856Z,46.87
2023-04-11T05:57:16.941Z,46.88
2023-04-11T05:58:16.869Z,46.98
2023-04-11T05:59:18.760Z,46.73
2023-04-11T06:00:16.894Z,46.71
2023-04-11T06:01:16.841Z,46.59
2023-04-11T06:02:17.017Z,46.80
2023-04-11T06:03:16.978Z,45.91
2023-04-11T06:04:17.081Z,45.07
2023-04-11T06:05:16.910Z,44.68
2023-04-11T06:06:16.849Z,44.27
2023-04-11T06:07:16.810Z,44.43
2023-04-11T06:08:16.976Z,44.62
2023-04-11T06:09:16.883Z,44.88
2023-04-11T06:10:16.782Z,44.84
2023-04-11T06:11:16.828Z,44.44
2023-04-11T06:12:16.888Z,44.02
2023-04-11T06:13:16.972Z,43.77
2023-04-11T06:14:16.982Z,43.40
2023-04-11T06:15:17.050Z,43.43
2023-04-11T06:16:17.085Z,43.59
2023-04-11T06:17:17.136Z,43.79
2023-04-11T06:18:17.209Z,43.73
2023-04-11T06:19:17.260Z,43.47
2023-04-11T06:20:17.309Z,43.14
2023-04-11T06:21:17.372Z,43.04
2023-04-11T06:22:17.453Z,42.59
2023-04-11T06:23:18.037Z,43.04
2023-04-11T06:24:17.644Z,43.99
2023-04-11T06:25:17.558Z,45.18
2023-04-11T06:26:17.621Z,45.82
2023-04-11T06:27:17.685Z,46.17
2023-04-11T06:28:17.736Z,46.56
2023-04-11T06:29:17.754Z,47.07
2023-04-11T06:30:17.894Z,47.47
2023-04-11T06:31:17.924Z,47.60
2023-04-11T06:32:17.979Z,47.71
2023-04-11T06:33:18.022Z,47.41
2023-04-11T06:34:18.043Z,47.13
2023-04-11T06:35:18.138Z,47.22
2023-04-11T06:36:18.188Z,47.08
2023-04-11T06:37:18.197Z,46.70
2023-04-11T06:38:18.296Z,46.95
2023-04-11T06:39:18.308Z,46.92
2023-04-11T06:40:18.716Z,46.46
2023-04-11T06:41:18.428Z,46.44
2023-04-11T06:42:18.495Z,46.75
2023-04-11T06:43:18.532Z,46.59
2023-04-11T06:44:18.634Z,46.37
2023-04-11T06:45:18.740Z,46.36
2023-04-11T06:46:18.805Z,46.42
2023-04-11T06:47:18.763Z,46.07
2023-04-11T06:48:18.855Z,45.93
2023-04-11T06:49:18.834Z,45.77
2023-04-11T06:50:18.900Z,45.99
2023-04-11T06:51:18.920Z,46.14
2023-04-11T06:52:18.971Z,45.86
2023-04-11T06:53:19.065Z,46.03
2023-04-11T06:54:19.074Z,46.08
2023-04-11T06:55:19.143Z,45.95
2023-04-11T06:56:19.189Z,46.07
2023-04-11T06:57:19.237Z,46.18
2023-04-11T06:58:19.744Z,45.72
2023-04-11T06:59:19.315Z,44.95
2023-04-11T07:00:19.381Z,44.23
2023-04-11T07:01:19.468Z,44.10
2023-04-11T07:02:19.555Z,43.96
2023-04-11T07:03:19.638Z,43.90
2023-04-11T07:04:19.596Z,43.81
2023-04-11T07:05:19.525Z,43.63
2023-04-11T07:06:19.556Z,43.66
2023-04-11T07:07:19.646Z,43.70
2023-04-11T07:08:19.770Z,43.63
2023-04-11T07:09:19.670Z,43.64
2023-04-11T07:10:19.677Z,43.53
2023-04-11T07:11:20.120Z,43.27
2023-04-11T07:12:19.831Z,43.09
2023-04-11T07:13:19.785Z,42.41
2023-04-11T07:14:19.791Z,42.52
2023-04-11T07:15:19.816Z,42.51
2023-04-11T07:16:19.892Z,42.22
2023-04-11T07:17:19.874Z,42.42
2023-04-11T07:18:19.888Z,42.87
2023-04-11T07:19:19.905Z,43.05
2023-04-11T07:20:20.249Z,43.16
2023-04-11T07:21:19.932Z,43.34
2023-04-11T07:22:20.032Z,43.48
2023-04-11T07:23:21.786Z,43.36
2023-04-11T07:24:19.994Z,43.31
2023-04-11T07:25:19.973Z,43.32
2023-04-11T07:26:19.967Z,43.36
2023-04-11T07:27:20.042Z,43.25
2023-04-11T07:28:19.941Z,43.15
2023-04-11T07:29:19.949Z,42.94
2023-04-11T07:30:20.316Z,42.76
2023-04-11T07:31:19.971Z,42.81
2023-04-11T07:32:19.983Z,43.07
2023-04-11T07:33:19.904Z,43.24
2023-04-11T07:34:20.216Z,43.21
2023-04-11T07:35:19.892Z,43.42
2023-04-11T07:36:19.879Z,42.86
2023-04-11T07:37:19.916Z,42.95
2023-04-11T07:38:19.877Z,43.08
2023-04-11T07:39:19.877Z,43.06
2023-04-11T07:40:19.871Z,42.92
2023-04-11T07:41:19.920Z,43.02
2023-04-11T07:42:19.862Z,43.15
2023-04-11T07:43:19.848Z,43.34
2023-04-11T07:44:20.241Z,43.05
2023-04-11T07:45:20.257Z,43.12
2023-04-11T07:46:19.925Z,43.15
2023-04-11T07:47:19.923Z,43.45
2023-04-11T07:48:19.826Z,43.04
2023-04-11T07:49:19.794Z,42.72
2023-04-11T07:50:19.797Z,42.85
2023-04-11T07:51:19.769Z,43.14
2023-04-11T07:52:19.759Z,43.16
2023-04-11T07:53:19.796Z,43.07
2023-04-11T07:54:19.767Z,43.12
2023-04-11T07:55:19.781Z,43.39
2023-04-11T07:56:19.750Z,43.29
2023-04-11T07:57:19.734Z,43.15
2023-04-11T07:58:19.740Z,42.01
2023-04-11T07:59:19.717Z,41.99
2023-04-11T08:00:19.735Z,42.19
2023-04-11T08:01:19.724Z,42.11
2023-04-11T08:02:19.762Z,41.93
2023-04-11T08:03:19.813Z,41.86
2023-04-11T08:04:19.869Z,41.55
2023-04-11T08:05:19.827Z,41.89
2023-04-11T08:06:19.665Z,41.91
2023-04-11T08:07:19.640Z,41.50
2023-04-11T08:08:19.660Z,41.29
2023-04-11T08:09:19.652Z,41.55
2023-04-11T08:10:19.639Z,42.26
2023-04-11T08:11:19.639Z,42.61
2023-04-11T08:12:19.623Z,42.75
2023-04-11T08:13:19.598Z,42.86
2023-04-11T08:14:19.616Z,42.85
2023-04-11T08:15:19.616Z,42.47
2023-04-11T08:16:19.607Z,42.31
2023-04-11T08:17:27.695Z,42.26
2023-04-11T08:18:20.635Z,42.60
2023-04-11T08:19:19.580Z,42.67
2023-04-11T08:20:19.627Z,42.43
2023-04-11T08:21:19.565Z,42.30
2023-04-11T08:22:20.240Z,42.35
2023-04-11T08:23:19.550Z,42.57
2023-04-11T08:24:19.576Z,42.44
2023-04-11T08:25:19.525Z,42.06
2023-04-11T08:26:19.533Z,41.88
2023-04-11T08:27:19.572Z,41.61
2023-04-11T08:28:19.646Z,41.03
2023-04-11T08:29:19.741Z,40.83
2023-04-11T08:30:19.741Z,40.97
2023-04-11T08:31:19.956Z,40.93
2023-04-11T08:32:19.812Z,40.78
2023-04-11T08:33:19.869Z,41.02
2023-04-11T08:34:19.895Z,41.56
2023-04-11T08:35:19.913Z,41.75
2023-04-11T08:36:19.948Z,41.76
2023-04-11T08:37:20.177Z,41.58
2023-04-11T08:38:20.019Z,41.57
2023-04-11T08:39:20.081Z,41.54
2023-04-11T08:40:20.115Z,41.77
2023-04-11T08:41:20.448Z,41.98
2023-04-11T08:42:20.199Z,42.33
2023-04-11T08:43:20.286Z,42.49
2023-04-11T08:44:20.290Z,42.25
2023-04-11T08:45:20.310Z,41.88
2023-04-11T08:46:20.444Z,41.92
2023-04-11T08:47:20.527Z,42.05
2023-04-11T08:48:20.428Z,42.29
2023-04-11T08:49:20.475Z,42.70
2023-04-11T08:50:20.499Z,42.90
2023-04-11T08:51:20.543Z,42.82
2023-04-11T08:52:20.591Z,43.05
2023-04-11T08:53:20.658Z,42.52
2023-04-11T08:54:20.707Z,42.44
2023-04-11T08:55:20.780Z,42.49
2023-04-11T08:56:20.842Z,42.11
2023-04-11T08:57:20.905Z,42.87
2023-04-11T08:58:20.929Z,42.09
2023-04-11T08:59:20.995Z,43.12
2023-04-11T09:00:21.011Z,43.27
2023-04-11T09:01:21.080Z,43.03
2023-04-11T09:02:21.282Z,42.90
2023-04-11T09:03:21.354Z,43.57
2023-04-11T09:04:21.226Z,44.15
2023-04-11T09:05:21.267Z,44.72
2023-04-11T09:06:21.317Z,45.28
2023-04-11T09:07:21.399Z,45.39
2023-04-11T09:08:21.448Z,45.23
2023-04-11T09:09:21.480Z,45.19
2023-04-11T09:10:21.509Z,45.53
2023-04-11T09:11:21.571Z,45.64
2023-04-11T09:12:21.613Z,45.33
2023-04-11T09:13:21.657Z,45.13
2023-04-11T09:14:21.694Z,45.34
2023-04-11T09:15:21.702Z,46.15
2023-04-11T09:16:21.893Z,45.77
2023-04-11T09:17:21.806Z,46.06
2023-04-11T09:18:21.821Z,46.32
2023-04-11T09:19:21.859Z,46.67
2023-04-11T09:20:21.923Z,47.30
2023-04-11T09:21:21.947Z,46.29
2023-04-11T09:22:21.984Z,45.32
2023-04-11T09:23:23.452Z,44.95
2023-04-11T09:24:22.060Z,45.64
2023-04-11T09:25:22.174Z,45.91
2023-04-11T09:26:23.821Z,46.33
2023-04-11T09:27:22.198Z,46.92
2023-04-11T09:28:22.239Z,46.96
2023-04-11T09:29:22.247Z,47.45
2023-04-11T09:30:22.267Z,48.19
2023-04-11T09:31:22.785Z,49.85
2023-04-11T09:32:22.361Z,50.49
2023-04-11T09:33:22.331Z,49.67
2023-04-11T09:34:22.370Z,49.20
2023-04-11T09:35:22.421Z,49.16
2023-04-11T09:36:22.452Z,49.77
2023-04-11T09:37:22.487Z,49.96
2023-04-11T09:38:22.526Z,50.80
2023-04-11T09:39:22.591Z,50.97
2023-04-11T09:40:22.707Z,50.84
2023-04-11T09:41:22.653Z,51.09
2023-04-11T09:42:22.717Z,51.08
2023-04-11T09:43:22.751Z,51.12
2023-04-11T09:44:22.803Z,51.76
2023-04-11T09:45:22.853Z,50.69
2023-04-11T09:46:22.980Z,50.68
2023-04-11T09:47:23.271Z,50.49
2023-04-11T09:48:32.028Z,51.00
2023-04-11T09:49:24.008Z,51.35
2023-04-11T09:50:23.077Z,51.76
2023-04-11T09:52:22.981Z,51.01
2023-04-11T09:53:22.961Z,51.01
2023-04-11T09:54:23.010Z,51.60
2023-04-11T09:55:22.963Z,52.23
2023-04-11T09:56:22.969Z,51.87
2023-04-11T09:57:23.177Z,51.91
2023-04-11T09:58:22.961Z,52.46
2023-04-11T09:59:22.977Z,52.14
2023-04-11T10:00:22.966Z,52.75
2023-04-11T10:01:22.934Z,53.23
2023-04-11T10:02:23.041Z,53.25
2023-04-11T10:03:23.086Z,53.66
2023-04-11T10:04:22.962Z,54.32
2023-04-11T10:05:22.911Z,54.95
2023-04-11T10:06:22.904Z,54.96
2023-04-11T10:07:22.871Z,54.53
2023-04-11T10:08:22.909Z,54.13
2023-04-11T10:09:22.854Z,53.45
2023-04-11T10:10:22.865Z,53.52
2023-04-11T10:11:24.065Z,53.73
2023-04-11T10:12:22.858Z,53.58
2023-04-11T10:13:22.848Z,54.04
2023-04-11T10:14:22.938Z,53.39
2023-04-11T10:15:22.936Z,53.66
2023-04-11T10:16:23.066Z,53.95
2023-04-11T10:17:24.366Z,53.60
2023-04-11T10:18:23.090Z,53.83
2023-04-11T10:19:23.288Z,53.74
2023-04-11T10:20:23.204Z,53.82
2023-04-11T10:21:23.248Z,54.07
2023-04-11T10:22:23.781Z,54.09
2023-04-11T10:23:23.320Z,53.92
2023-04-11T10:24:23.755Z,54.23
2023-04-11T10:25:23.426Z,54.09
2023-04-11T10:26:23.448Z,54.05
2023-04-11T10:27:23.520Z,54.61
2023-04-11T10:28:23.591Z,54.84
2023-04-11T10:29:23.636Z,55.17
2023-04-11T10:30:23.660Z,54.80
2023-04-11T10:31:23.721Z,53.81
2023-04-11T10:32:23.764Z,54.27
2023-04-11T10:33:23.777Z,54.98
2023-04-11T10:34:24.283Z,54.70
2023-04-11T10:35:23.878Z,54.04
2023-04-11T10:36:23.897Z,53.87
2023-04-11T10:37:23.939Z,54.20
2023-04-11T10:38:23.960Z,53.85
2023-04-11T10:39:23.994Z,53.93
2023-04-11T10:40:24.045Z,53.43
2023-04-11T10:41:24.030Z,53.61
2023-04-11T10:42:24.054Z,54.01
2023-04-11T10:43:24.067Z,54.45
2023-04-11T10:44:24.116Z,54.99
2023-04-11T10:45:24.114Z,54.85
2023-04-11T10:46:24.157Z,54.55
2023-04-11T10:47:24.145Z,54.53
2023-04-11T10:48:24.172Z,55.02
2023-04-11T10:49:24.145Z,54.56
2023-04-11T10:50:24.155Z,54.52
2023-04-11T10:51:24.168Z,54.49
2023-04-11T10:52:24.188Z,54.28
2023-04-11T10:53:24.200Z,54.92
2023-04-11T10:54:24.203Z,54.60
2023-04-11T10:55:24.206Z,54.63
2023-04-11T10:56:24.228Z,54.04
2023-04-11T10:57:24.234Z,54.04
2023-04-11T10:58:24.203Z,53.60
2023-04-11T10:59:24.238Z,53.82
2023-04-11T11:00:24.227Z,53.29
2023-04-11T11:01:32.028Z,53.27
2023-04-11T11:02:25.358Z,53.15
2023-04-11T11:03:24.384Z,52.76
2023-04-11T11:04:24.298Z,53.00
2023-04-11T11:05:24.197Z,53.41
2023-04-11T11:06:24.204Z,53.52
2023-04-11T11:07:24.279Z,53.30
2023-04-11T11:08:24.219Z,52.84
2023-04-11T11:09:24.185Z,52.81
2023-04-11T11:10:24.181Z,53.02
2023-04-11T11:11:24.211Z,53.26
2023-04-11T11:12:24.221Z,53.43
2023-04-11T11:13:24.137Z,52.99
2023-04-11T11:14:24.150Z,53.05
2023-04-11T11:15:24.146Z,53.34
2023-04-11T11:16:24.139Z,53.34
2023-04-11T11:17:24.167Z,52.95
2023-04-11T11:18:24.263Z,52.69
2023-04-11T11:19:24.090Z,52.90
2023-04-11T11:20:24.121Z,52.62
2023-04-11T11:21:27.351Z,52.82
2023-04-11T11:22:24.109Z,52.84
2023-04-11T11:23:24.071Z,52.27
2023-04-11T11:24:24.070Z,52.35
2023-04-11T11:25:24.077Z,51.81
2023-04-11T11:26:24.043Z,51.47
2023-04-11T11:27:24.120Z,51.64
2023-04-11T11:28:24.034Z,51.73
2023-04-11T11:29:24.040Z,52.01
2023-04-11T11:30:24.035Z,52.30
2023-04-11T11:31:24.041Z,52.67
2023-04-11T11:32:24.036Z,52.47
2023-04-11T11:33:23.998Z,52.30
2023-04-11T11:34:24.384Z,51.86
2023-04-11T11:35:23.985Z,52.01
2023-04-11T11:36:24.018Z,51.93
2023-04-11T11:37:23.980Z,52.03
2023-04-11T11:38:23.974Z,52.48
2023-04-11T11:39:23.987Z,52.24
2023-04-11T11:40:23.975Z,52.18
2023-04-11T11:41:23.939Z,52.74
2023-04-11T11:42:23.927Z,52.09
2023-04-11T11:43:23.941Z,51.46
2023-04-11T11:44:23.958Z,50.98
2023-04-11T11:46:23.985Z,49.96
2023-04-11T11:47:23.906Z,50.50
2023-04-11T11:48:23.886Z,49.16
2023-04-11T11:49:23.893Z,51.19
2023-04-11T11:50:23.875Z,51.43
2023-04-11T11:51:23.879Z,51.14
2023-04-11T11:52:23.859Z,50.96
2023-04-11T11:53:23.869Z,50.38
2023-04-11T11:54:23.867Z,49.92
2023-04-11T11:55:23.853Z,49.63
2023-04-11T11:56:23.853Z,49.95
2023-04-11T11:57:23.878Z,49.35
2023-04-11T11:58:23.828Z,49.62
2023-04-11T11:59:23.839Z,49.29
2023-04-11T12:00:23.859Z,49.40
2023-04-11T12:01:23.840Z,49.38
2023-04-11T12:02:23.918Z,49.49
2023-04-11T12:03:23.942Z,49.34
2023-04-11T12:04:23.876Z,48.82
2023-04-11T12:05:23.872Z,49.27
2023-04-11T12:06:23.815Z,49.76
2023-04-11T12:07:23.821Z,49.85
2023-04-11T12:08:23.874Z,51.08
2023-04-11T12:09:23.911Z,50.72
2023-04-11T12:10:23.978Z,50.16
2023-04-11T12:11:24.007Z,50.74
2023-04-11T12:12:24.036Z,50.45
2023-04-11T12:13:24.062Z,50.07
2023-04-11T12:14:24.086Z,49.96
2023-04-11T12:15:24.112Z,49.69
2023-04-11T12:16:24.308Z,47.72
2023-04-11T12:17:24.231Z,48.38
2023-04-11T12:18:24.254Z,48.65
2023-04-11T12:19:24.331Z,47.96
2023-04-11T12:20:24.373Z,47.91
2023-04-11T12:21:24.433Z,46.84
2023-04-11T12:22:24.471Z,46.43
2023-04-11T12:23:24.565Z,46.23
2023-04-11T12:24:24.565Z,45.86
2023-04-11T12:25:24.610Z,46.28
2023-04-11T12:26:24.657Z,46.46
2023-04-11T12:27:24.700Z,46.02
2023-04-11T12:28:24.794Z,46.65
2023-04-11T12:29:26.381Z,46.99
2023-04-11T12:30:24.888Z,46.32
2023-04-11T12:31:25.013Z,45.94
2023-04-11T12:32:25.074Z,45.83
2023-04-11T12:33:25.040Z,45.87
2023-04-11T12:34:25.097Z,45.86
2023-04-11T12:35:25.152Z,45.67
2023-04-11T12:36:25.199Z,45.18
2023-04-11T12:37:25.214Z,45.38
2023-04-11T12:38:25.269Z,46.67
2023-04-11T12:39:25.325Z,46.95
2023-04-11T12:40:25.368Z,47.12
2023-04-11T12:42:27.229Z,46.61
2023-04-11T12:43:25.399Z,46.36
2023-04-11T12:44:25.444Z,45.96
2023-04-11T12:45:25.397Z,45.19
2023-04-11T12:46:25.454Z,45.05
2023-04-11T12:47:25.404Z,44.99
2023-04-11T12:48:25.393Z,44.54
2023-04-11T12:49:25.389Z,45.60
2023-04-11T12:50:25.421Z,45.04
2023-04-11T12:51:25.438Z,44.28
2023-04-11T12:52:25.456Z,44.09
2023-04-11T12:53:25.490Z,44.77
2023-04-11T12:54:25.458Z,44.29
2023-04-11T12:55:25.562Z,44.12